sensor_id;sensor_type;location;lat;lon;timestamp;P1;durP1;ratioP1;P2;durP2;ratioP2
71888;SDS011;59762;49.998;14.858;2022-08-19T00:00:27;6.03;;;3.03;;
71888;SDS011;59762;49.998;14.858;2022-08-19T00:03:03;5.25;;;2.53;;
71888;SDS011;59762;49.998;14.858;2022-08-19T00:05:29;4.82;;;2.70;;
71888;SDS011;59762;49.998;14.858;2022-08-19T00:07:56;7.95;;;2.97;;
71888;SDS011;59762;49.998;14.858;2022-08-19T00:10:22;4.70;;;2.92;;
71888;SDS011;59762;49.998;14.858;2022-08-19T00:12:49;5.07;;;2.95;;
71888;SDS011;59762;49.998;14.858;2022-08-19T00:15:17;3.65;;;3.15;;
71888;SDS011;59762;49.998;14.858;2022-08-19T00:17:44;5.57;;;2.83;;
71888;SDS011;59762;49.998;14.858;2022-08-19T00:20:12;5.45;;;3.00;;
71888;SDS011;59762;49.998;14.858;2022-08-19T00:22:38;7.07;;;3.38;;
71888;SDS011;59762;49.998;14.858;2022-08-19T00:25:06;5.68;;;2.72;;
71888;SDS011;59762;49.998;14.858;2022-08-19T00:27:32;7.43;;;3.17;;
71888;SDS011;59762;49.998;14.858;2022-08-19T00:29:58;5.50;;;2.88;;
71888;SDS011;59762;49.998;14.858;2022-08-19T00:32:24;4.60;;;3.17;;
71888;SDS011;59762;49.998;14.858;2022-08-19T00:34:51;5.57;;;3.63;;
71888;SDS011;59762;49.998;14.858;2022-08-19T00:37:18;4.05;;;2.97;;
71888;SDS011;59762;49.998;14.858;2022-08-19T00:39:48;7.97;;;3.45;;
71888;SDS011;59762;49.998;14.858;2022-08-19T00:42:16;4.72;;;3.60;;
71888;SDS011;59762;49.998;14.858;2022-08-19T00:44:43;7.47;;;3.90;;
71888;SDS011;59762;49.998;14.858;2022-08-19T00:47:09;6.82;;;4.03;;
71888;SDS011;59762;49.998;14.858;2022-08-19T00:49:43;6.97;;;4.35;;
71888;SDS011;59762;49.998;14.858;2022-08-19T00:52:21;6.97;;;3.78;;
71888;SDS011;59762;49.998;14.858;2022-08-19T00:54:50;10.32;;;4.10;;
71888;SDS011;59762;49.998;14.858;2022-08-19T00:57:18;5.88;;;3.70;;
71888;SDS011;59762;49.998;14.858;2022-08-19T01:02:19;7.25;;;4.03;;
71888;SDS011;59762;49.998;14.858;2022-08-19T01:04:45;9.15;;;3.90;;
71888;SDS011;59762;49.998;14.858;2022-08-19T01:07:10;9.15;;;4.03;;
71888;SDS011;59762;49.998;14.858;2022-08-19T01:09:37;4.85;;;3.78;;
71888;SDS011;59762;49.998;14.858;2022-08-19T01:12:03;7.85;;;3.65;;
71888;SDS011;59762;49.998;14.858;2022-08-19T01:14:29;8.60;;;4.28;;
71888;SDS011;59762;49.998;14.858;2022-08-19T01:16:56;8.63;;;4.78;;
71888;SDS011;59762;49.998;14.858;2022-08-19T01:19:29;7.75;;;4.35;;
71888;SDS011;59762;49.998;14.858;2022-08-19T01:22:00;7.30;;;4.20;;
71888;SDS011;59762;49.998;14.858;2022-08-19T01:24:31;7.82;;;4.20;;
71888;SDS011;59762;49.998;14.858;2022-08-19T01:26:56;7.57;;;4.57;;
71888;SDS011;59762;49.998;14.858;2022-08-19T01:29:23;6.10;;;4.15;;
71888;SDS011;59762;49.998;14.858;2022-08-19T01:31:48;6.82;;;4.07;;
71888;SDS011;59762;49.998;14.858;2022-08-19T01:34:17;10.43;;;4.60;;
71888;SDS011;59762;49.998;14.858;2022-08-19T01:36:44;6.03;;;4.40;;
71888;SDS011;59762;49.998;14.858;2022-08-19T01:39:13;9.50;;;4.22;;
71888;SDS011;59762;49.998;14.858;2022-08-19T01:41:41;6.63;;;4.53;;
71888;SDS011;59762;49.998;14.858;2022-08-19T01:44:07;6.32;;;4.32;;
71888;SDS011;59762;49.998;14.858;2022-08-19T01:46:35;8.25;;;4.43;;
71888;SDS011;59762;49.998;14.858;2022-08-19T01:49:02;6.85;;;4.50;;
71888;SDS011;59762;49.998;14.858;2022-08-19T01:51:29;8.60;;;4.38;;
71888;SDS011;59762;49.998;14.858;2022-08-19T01:53:55;7.05;;;4.75;;
71888;SDS011;59762;49.998;14.858;2022-08-19T01:56:21;6.88;;;4.82;;
71888;SDS011;59762;49.998;14.858;2022-08-19T01:58:51;6.40;;;4.50;;
71888;SDS011;59762;49.998;14.858;2022-08-19T02:01:21;6.80;;;4.72;;
71888;SDS011;59762;49.998;14.858;2022-08-19T02:03:47;6.43;;;4.28;;
71888;SDS011;59762;49.998;14.858;2022-08-19T02:06:12;7.70;;;4.30;;
71888;SDS011;59762;49.998;14.858;2022-08-19T02:08:39;7.00;;;4.65;;
71888;SDS011;59762;49.998;14.858;2022-08-19T02:11:05;7.65;;;4.90;;
71888;SDS011;59762;49.998;14.858;2022-08-19T02:13:31;6.40;;;4.43;;
71888;SDS011;59762;49.998;14.858;2022-08-19T02:15:57;14.77;;;5.75;;
71888;SDS011;59762;49.998;14.858;2022-08-19T02:18:23;7.25;;;4.28;;
71888;SDS011;59762;49.998;14.858;2022-08-19T02:20:49;7.70;;;4.65;;
71888;SDS011;59762;49.998;14.858;2022-08-19T02:23:15;6.82;;;4.68;;
71888;SDS011;59762;49.998;14.858;2022-08-19T02:25:42;7.85;;;4.65;;
71888;SDS011;59762;49.998;14.858;2022-08-19T02:28:10;9.43;;;4.88;;
71888;SDS011;59762;49.998;14.858;2022-08-19T02:30:36;7.80;;;5.05;;
71888;SDS011;59762;49.998;14.858;2022-08-19T02:33:04;9.50;;;5.85;;
71888;SDS011;59762;49.998;14.858;2022-08-19T02:35:30;9.65;;;5.10;;
71888;SDS011;59762;49.998;14.858;2022-08-19T02:37:56;6.68;;;5.03;;
71888;SDS011;59762;49.998;14.858;2022-08-19T02:40:47;8.07;;;5.43;;
71888;SDS011;59762;49.998;14.858;2022-08-19T02:43:14;8.30;;;5.18;;
71888;SDS011;59762;49.998;14.858;2022-08-19T02:45:40;10.38;;;5.65;;
71888;SDS011;59762;49.998;14.858;2022-08-19T02:48:06;14.45;;;6.50;;
71888;SDS011;59762;49.998;14.858;2022-08-19T02:50:36;12.15;;;7.15;;
71888;SDS011;59762;49.998;14.858;2022-08-19T02:53:03;10.23;;;7.10;;
71888;SDS011;59762;49.998;14.858;2022-08-19T02:55:29;13.15;;;7.80;;
71888;SDS011;59762;49.998;14.858;2022-08-19T02:57:55;10.82;;;8.50;;
71888;SDS011;59762;49.998;14.858;2022-08-19T03:00:22;10.38;;;7.65;;
71888;SDS011;59762;49.998;14.858;2022-08-19T03:02:49;11.70;;;7.82;;
71888;SDS011;59762;49.998;14.858;2022-08-19T03:05:15;10.52;;;7.43;;
71888;SDS011;59762;49.998;14.858;2022-08-19T03:07:41;11.27;;;7.40;;
71888;SDS011;59762;49.998;14.858;2022-08-19T03:10:07;13.73;;;8.10;;
71888;SDS011;59762;49.998;14.858;2022-08-19T03:12:35;10.25;;;8.00;;
71888;SDS011;59762;49.998;14.858;2022-08-19T03:15:02;14.13;;;8.57;;
71888;SDS011;59762;49.998;14.858;2022-08-19T03:17:30;12.48;;;8.20;;
71888;SDS011;59762;49.998;14.858;2022-08-19T03:19:55;13.25;;;8.52;;
71888;SDS011;59762;49.998;14.858;2022-08-19T03:22:21;12.30;;;8.68;;
71888;SDS011;59762;49.998;14.858;2022-08-19T03:24:47;12.63;;;8.02;;
71888;SDS011;59762;49.998;14.858;2022-08-19T03:27:12;11.82;;;8.50;;
71888;SDS011;59762;49.998;14.858;2022-08-19T03:29:39;13.98;;;9.02;;
71888;SDS011;59762;49.998;14.858;2022-08-19T03:32:05;10.60;;;8.00;;
71888;SDS011;59762;49.998;14.858;2022-08-19T03:34:32;11.70;;;7.65;;
71888;SDS011;59762;49.998;14.858;2022-08-19T03:37:03;12.15;;;9.35;;
71888;SDS011;59762;49.998;14.858;2022-08-19T03:39:31;14.45;;;9.23;;
71888;SDS011;59762;49.998;14.858;2022-08-19T03:41:56;12.98;;;9.32;;
71888;SDS011;59762;49.998;14.858;2022-08-19T03:44:23;16.35;;;8.80;;
71888;SDS011;59762;49.998;14.858;2022-08-19T03:46:54;12.82;;;8.77;;
71888;SDS011;59762;49.998;14.858;2022-08-19T03:49:23;14.20;;;8.48;;
71888;SDS011;59762;49.998;14.858;2022-08-19T03:51:52;13.70;;;8.07;;
71888;SDS011;59762;49.998;14.858;2022-08-19T03:54:20;8.70;;;7.07;;
71888;SDS011;59762;49.998;14.858;2022-08-19T03:56:49;12.73;;;7.97;;
71888;SDS011;59762;49.998;14.858;2022-08-19T03:59:20;9.98;;;7.07;;
71888;SDS011;59762;49.998;14.858;2022-08-19T04:01:50;10.32;;;6.70;;
71888;SDS011;59762;49.998;14.858;2022-08-19T04:04:16;9.75;;;6.88;;
71888;SDS011;59762;49.998;14.858;2022-08-19T04:06:42;15.20;;;9.95;;
71888;SDS011;59762;49.998;14.858;2022-08-19T04:09:09;21.13;;;10.05;;
71888;SDS011;59762;49.998;14.858;2022-08-19T04:11:38;12.25;;;7.57;;
71888;SDS011;59762;49.998;14.858;2022-08-19T04:14:09;16.25;;;9.05;;
71888;SDS011;59762;49.998;14.858;2022-08-19T04:16:40;9.77;;;6.50;;
71888;SDS011;59762;49.998;14.858;2022-08-19T04:19:05;10.02;;;7.50;;
71888;SDS011;59762;49.998;14.858;2022-08-19T04:21:32;11.77;;;8.45;;
71888;SDS011;59762;49.998;14.858;2022-08-19T04:23:58;15.95;;;8.10;;
71888;SDS011;59762;49.998;14.858;2022-08-19T04:26:28;11.75;;;7.38;;
71888;SDS011;59762;49.998;14.858;2022-08-19T04:29:00;10.82;;;7.90;;
71888;SDS011;59762;49.998;14.858;2022-08-19T04:31:27;12.20;;;7.07;;
71888;SDS011;59762;49.998;14.858;2022-08-19T04:33:58;12.32;;;7.70;;
71888;SDS011;59762;49.998;14.858;2022-08-19T04:36:28;8.80;;;7.30;;
71888;SDS011;59762;49.998;14.858;2022-08-19T04:38:57;10.10;;;7.35;;
71888;SDS011;59762;49.998;14.858;2022-08-19T04:41:24;12.18;;;6.70;;
71888;SDS011;59762;49.998;14.858;2022-08-19T04:44:09;13.13;;;7.78;;
71888;SDS011;59762;49.998;14.858;2022-08-19T04:46:35;9.80;;;7.03;;
71888;SDS011;59762;49.998;14.858;2022-08-19T04:49:02;10.48;;;6.63;;
71888;SDS011;59762;49.998;14.858;2022-08-19T04:51:30;8.90;;;6.88;;
71888;SDS011;59762;49.998;14.858;2022-08-19T04:54:03;10.63;;;7.60;;
71888;SDS011;59762;49.998;14.858;2022-08-19T04:56:29;11.93;;;7.78;;
71888;SDS011;59762;49.998;14.858;2022-08-19T04:58:55;10.57;;;7.57;;
71888;SDS011;59762;49.998;14.858;2022-08-19T05:01:26;10.40;;;7.60;;
71888;SDS011;59762;49.998;14.858;2022-08-19T05:03:53;12.40;;;7.80;;
71888;SDS011;59762;49.998;14.858;2022-08-19T05:06:20;12.23;;;8.00;;
71888;SDS011;59762;49.998;14.858;2022-08-19T05:08:47;12.00;;;7.20;;
71888;SDS011;59762;49.998;14.858;2022-08-19T05:11:16;10.20;;;6.95;;
71888;SDS011;59762;49.998;14.858;2022-08-19T05:13:43;11.65;;;7.05;;
71888;SDS011;59762;49.998;14.858;2022-08-19T05:16:10;8.20;;;6.10;;
71888;SDS011;59762;49.998;14.858;2022-08-19T05:18:36;9.80;;;7.13;;
71888;SDS011;59762;49.998;14.858;2022-08-19T05:21:21;11.13;;;7.00;;
71888;SDS011;59762;49.998;14.858;2022-08-19T05:26:35;8.15;;;6.32;;
71888;SDS011;59762;49.998;14.858;2022-08-19T05:29:06;10.48;;;7.45;;
71888;SDS011;59762;49.998;14.858;2022-08-19T05:31:34;8.65;;;7.00;;
71888;SDS011;59762;49.998;14.858;2022-08-19T05:34:00;10.45;;;7.03;;
71888;SDS011;59762;49.998;14.858;2022-08-19T05:36:27;14.75;;;6.88;;
71888;SDS011;59762;49.998;14.858;2022-08-19T05:38:54;9.15;;;7.50;;
71888;SDS011;59762;49.998;14.858;2022-08-19T05:41:21;9.32;;;7.25;;
71888;SDS011;59762;49.998;14.858;2022-08-19T05:43:54;10.10;;;6.65;;
71888;SDS011;59762;49.998;14.858;2022-08-19T05:46:21;8.52;;;6.93;;
71888;SDS011;59762;49.998;14.858;2022-08-19T05:48:47;10.70;;;6.97;;
71888;SDS011;59762;49.998;14.858;2022-08-19T05:51:14;13.90;;;7.55;;
71888;SDS011;59762;49.998;14.858;2022-08-19T05:53:41;9.02;;;7.25;;
71888;SDS011;59762;49.998;14.858;2022-08-19T05:56:08;10.93;;;7.43;;
71888;SDS011;59762;49.998;14.858;2022-08-19T05:58:36;11.52;;;7.93;;
71888;SDS011;59762;49.998;14.858;2022-08-19T06:01:03;9.98;;;8.32;;
71888;SDS011;59762;49.998;14.858;2022-08-19T06:03:34;11.40;;;9.45;;
71888;SDS011;59762;49.998;14.858;2022-08-19T06:06:00;13.18;;;8.52;;
71888;SDS011;59762;49.998;14.858;2022-08-19T06:08:27;13.40;;;9.10;;
71888;SDS011;59762;49.998;14.858;2022-08-19T06:10:53;11.85;;;9.40;;
71888;SDS011;59762;49.998;14.858;2022-08-19T06:13:19;13.00;;;10.13;;
71888;SDS011;59762;49.998;14.858;2022-08-19T06:15:45;13.38;;;10.35;;
71888;SDS011;59762;49.998;14.858;2022-08-19T06:18:12;13.00;;;10.48;;
71888;SDS011;59762;49.998;14.858;2022-08-19T06:20:39;15.20;;;10.82;;
71888;SDS011;59762;49.998;14.858;2022-08-19T06:23:05;15.45;;;12.68;;
71888;SDS011;59762;49.998;14.858;2022-08-19T06:25:30;15.57;;;12.75;;
71888;SDS011;59762;49.998;14.858;2022-08-19T06:27:56;14.80;;;12.85;;
71888;SDS011;59762;49.998;14.858;2022-08-19T06:30:22;14.65;;;12.05;;
71888;SDS011;59762;49.998;14.858;2022-08-19T06:32:48;16.98;;;13.80;;
71888;SDS011;59762;49.998;14.858;2022-08-19T06:35:14;18.48;;;13.90;;
71888;SDS011;59762;49.998;14.858;2022-08-19T06:37:40;16.55;;;13.52;;
71888;SDS011;59762;49.998;14.858;2022-08-19T06:40:06;16.23;;;13.40;;
71888;SDS011;59762;49.998;14.858;2022-08-19T06:42:34;20.65;;;13.75;;
71888;SDS011;59762;49.998;14.858;2022-08-19T06:45:00;15.55;;;13.10;;
71888;SDS011;59762;49.998;14.858;2022-08-19T06:47:29;14.10;;;12.18;;
71888;SDS011;59762;49.998;14.858;2022-08-19T06:49:56;15.05;;;12.35;;
71888;SDS011;59762;49.998;14.858;2022-08-19T06:52:29;16.10;;;11.57;;
71888;SDS011;59762;49.998;14.858;2022-08-19T06:54:55;15.85;;;12.10;;
71888;SDS011;59762;49.998;14.858;2022-08-19T06:57:21;17.35;;;12.55;;
71888;SDS011;59762;49.998;14.858;2022-08-19T06:59:48;14.73;;;11.35;;
71888;SDS011;59762;49.998;14.858;2022-08-19T07:02:13;20.15;;;12.45;;
71888;SDS011;59762;49.998;14.858;2022-08-19T07:04:39;19.75;;;12.75;;
71888;SDS011;59762;49.998;14.858;2022-08-19T07:07:06;16.88;;;12.10;;
71888;SDS011;59762;49.998;14.858;2022-08-19T07:09:36;14.68;;;12.57;;
71888;SDS011;59762;49.998;14.858;2022-08-19T07:12:04;15.10;;;11.88;;
71888;SDS011;59762;49.998;14.858;2022-08-19T07:14:32;14.18;;;11.18;;
71888;SDS011;59762;49.998;14.858;2022-08-19T07:17:03;14.63;;;12.27;;
71888;SDS011;59762;49.998;14.858;2022-08-19T07:19:30;14.45;;;11.43;;
71888;SDS011;59762;49.998;14.858;2022-08-19T07:21:57;15.10;;;12.02;;
71888;SDS011;59762;49.998;14.858;2022-08-19T07:24:27;15.23;;;11.60;;
71888;SDS011;59762;49.998;14.858;2022-08-19T07:26:54;16.55;;;11.82;;
71888;SDS011;59762;49.998;14.858;2022-08-19T07:29:26;15.15;;;11.88;;
71888;SDS011;59762;49.998;14.858;2022-08-19T07:31:53;18.13;;;12.00;;
71888;SDS011;59762;49.998;14.858;2022-08-19T07:34:24;18.10;;;12.43;;
71888;SDS011;59762;49.998;14.858;2022-08-19T07:36:50;13.05;;;11.05;;
71888;SDS011;59762;49.998;14.858;2022-08-19T07:39:21;15.90;;;11.63;;
71888;SDS011;59762;49.998;14.858;2022-08-19T07:41:49;18.35;;;12.02;;
71888;SDS011;59762;49.998;14.858;2022-08-19T07:44:19;15.35;;;12.43;;
71888;SDS011;59762;49.998;14.858;2022-08-19T07:46:47;16.42;;;11.40;;
71888;SDS011;59762;49.998;14.858;2022-08-19T07:49:17;16.38;;;12.48;;
71888;SDS011;59762;49.998;14.858;2022-08-19T07:51:50;15.10;;;13.32;;
71888;SDS011;59762;49.998;14.858;2022-08-19T07:54:21;15.70;;;12.82;;
71888;SDS011;59762;49.998;14.858;2022-08-19T07:56:49;14.77;;;11.82;;
71888;SDS011;59762;49.998;14.858;2022-08-19T07:59:16;14.82;;;12.30;;
71888;SDS011;59762;49.998;14.858;2022-08-19T08:01:43;14.90;;;13.00;;
71888;SDS011;59762;49.998;14.858;2022-08-19T08:04:09;15.07;;;11.98;;
71888;SDS011;59762;49.998;14.858;2022-08-19T08:06:54;15.75;;;13.32;;
71888;SDS011;59762;49.998;14.858;2022-08-19T08:09:40;16.60;;;13.50;;
71888;SDS011;59762;49.998;14.858;2022-08-19T08:12:11;17.58;;;13.55;;
71888;SDS011;59762;49.998;14.858;2022-08-19T08:14:41;19.90;;;13.85;;
71888;SDS011;59762;49.998;14.858;2022-08-19T08:17:16;16.90;;;13.60;;
71888;SDS011;59762;49.998;14.858;2022-08-19T08:19:44;15.90;;;13.00;;
71888;SDS011;59762;49.998;14.858;2022-08-19T08:22:11;15.80;;;13.57;;
71888;SDS011;59762;49.998;14.858;2022-08-19T08:25:12;15.20;;;13.23;;
71888;SDS011;59762;49.998;14.858;2022-08-19T08:27:42;17.30;;;13.50;;
71888;SDS011;59762;49.998;14.858;2022-08-19T08:30:10;17.33;;;14.73;;
71888;SDS011;59762;49.998;14.858;2022-08-19T08:32:41;17.67;;;14.30;;
71888;SDS011;59762;49.998;14.858;2022-08-19T08:35:08;16.10;;;13.25;;
71888;SDS011;59762;49.998;14.858;2022-08-19T08:37:36;17.83;;;13.88;;
71888;SDS011;59762;49.998;14.858;2022-08-19T08:40:04;15.98;;;13.65;;
71888;SDS011;59762;49.998;14.858;2022-08-19T08:42:32;18.33;;;14.32;;
71888;SDS011;59762;49.998;14.858;2022-08-19T08:47:38;18.08;;;13.52;;
71888;SDS011;59762;49.998;14.858;2022-08-19T08:50:16;14.93;;;12.95;;
71888;SDS011;59762;49.998;14.858;2022-08-19T08:52:45;14.95;;;12.70;;
71888;SDS011;59762;49.998;14.858;2022-08-19T08:55:15;17.42;;;13.68;;
71888;SDS011;59762;49.998;14.858;2022-08-19T09:00:17;16.98;;;13.43;;
71888;SDS011;59762;49.998;14.858;2022-08-19T09:02:46;16.20;;;13.43;;
71888;SDS011;59762;49.998;14.858;2022-08-19T09:05:12;15.85;;;13.27;;
71888;SDS011;59762;49.998;14.858;2022-08-19T09:07:41;15.93;;;12.98;;
71888;SDS011;59762;49.998;14.858;2022-08-19T09:10:33;17.05;;;12.48;;
71888;SDS011;59762;49.998;14.858;2022-08-19T09:15:46;16.40;;;12.55;;
71888;SDS011;59762;49.998;14.858;2022-08-19T09:18:17;16.10;;;12.65;;
71888;SDS011;59762;49.998;14.858;2022-08-19T09:20:43;16.80;;;12.55;;
71888;SDS011;59762;49.998;14.858;2022-08-19T09:23:09;15.25;;;13.52;;
71888;SDS011;59762;49.998;14.858;2022-08-19T09:25:36;15.98;;;12.48;;
71888;SDS011;59762;49.998;14.858;2022-08-19T09:28:02;15.20;;;12.25;;
71888;SDS011;59762;49.998;14.858;2022-08-19T09:30:30;16.75;;;13.27;;
71888;SDS011;59762;49.998;14.858;2022-08-19T09:32:58;14.25;;;12.13;;
71888;SDS011;59762;49.998;14.858;2022-08-19T09:35:25;16.25;;;12.80;;
71888;SDS011;59762;49.998;14.858;2022-08-19T09:37:53;19.90;;;14.02;;
71888;SDS011;59762;49.998;14.858;2022-08-19T09:40:19;18.73;;;13.77;;
71888;SDS011;59762;49.998;14.858;2022-08-19T09:42:45;16.13;;;13.60;;
71888;SDS011;59762;49.998;14.858;2022-08-19T09:45:13;16.10;;;13.63;;
71888;SDS011;59762;49.998;14.858;2022-08-19T09:47:39;14.90;;;13.30;;
71888;SDS011;59762;49.998;14.858;2022-08-19T09:50:06;15.13;;;12.57;;
71888;SDS011;59762;49.998;14.858;2022-08-19T09:52:33;15.75;;;12.85;;
71888;SDS011;59762;49.998;14.858;2022-08-19T09:55:04;15.57;;;12.02;;
71888;SDS011;59762;49.998;14.858;2022-08-19T09:57:31;13.50;;;12.10;;
71888;SDS011;59762;49.998;14.858;2022-08-19T09:59:57;17.40;;;12.48;;
71888;SDS011;59762;49.998;14.858;2022-08-19T10:02:22;16.58;;;12.35;;
71888;SDS011;59762;49.998;14.858;2022-08-19T10:04:48;15.38;;;11.85;;
71888;SDS011;59762;49.998;14.858;2022-08-19T10:07:32;15.50;;;12.02;;
71888;SDS011;59762;49.998;14.858;2022-08-19T10:09:57;15.23;;;11.93;;
71888;SDS011;59762;49.998;14.858;2022-08-19T10:12:23;14.57;;;12.55;;
71888;SDS011;59762;49.998;14.858;2022-08-19T10:14:50;15.43;;;12.50;;
71888;SDS011;59762;49.998;14.858;2022-08-19T10:17:21;14.98;;;12.00;;
71888;SDS011;59762;49.998;14.858;2022-08-19T10:19:46;16.38;;;12.93;;
71888;SDS011;59762;49.998;14.858;2022-08-19T10:22:12;14.68;;;11.95;;
71888;SDS011;59762;49.998;14.858;2022-08-19T10:24:39;16.15;;;11.93;;
71888;SDS011;59762;49.998;14.858;2022-08-19T10:27:04;12.10;;;10.80;;
71888;SDS011;59762;49.998;14.858;2022-08-19T10:29:31;15.50;;;11.98;;
71888;SDS011;59762;49.998;14.858;2022-08-19T10:31:57;14.20;;;11.77;;
71888;SDS011;59762;49.998;14.858;2022-08-19T10:34:25;13.07;;;10.88;;
71888;SDS011;59762;49.998;14.858;2022-08-19T10:36:54;15.25;;;11.15;;
71888;SDS011;59762;49.998;14.858;2022-08-19T10:39:21;14.50;;;11.95;;
71888;SDS011;59762;49.998;14.858;2022-08-19T10:41:46;12.70;;;11.15;;
71888;SDS011;59762;49.998;14.858;2022-08-19T10:44:12;13.32;;;10.85;;
71888;SDS011;59762;49.998;14.858;2022-08-19T10:46:40;12.90;;;11.15;;
71888;SDS011;59762;49.998;14.858;2022-08-19T10:49:09;13.52;;;10.60;;
71888;SDS011;59762;49.998;14.858;2022-08-19T10:51:36;13.60;;;12.02;;
71888;SDS011;59762;49.998;14.858;2022-08-19T10:54:22;12.48;;;10.95;;
71888;SDS011;59762;49.998;14.858;2022-08-19T10:56:47;14.55;;;11.20;;
71888;SDS011;59762;49.998;14.858;2022-08-19T10:59:16;14.50;;;11.10;;
71888;SDS011;59762;49.998;14.858;2022-08-19T11:01:48;13.82;;;11.35;;
71888;SDS011;59762;49.998;14.858;2022-08-19T11:04:15;12.77;;;10.30;;
71888;SDS011;59762;49.998;14.858;2022-08-19T11:06:44;13.65;;;11.63;;
71888;SDS011;59762;49.998;14.858;2022-08-19T11:09:19;14.93;;;11.27;;
71888;SDS011;59762;49.998;14.858;2022-08-19T11:11:49;11.90;;;10.68;;
71888;SDS011;59762;49.998;14.858;2022-08-19T11:14:17;13.60;;;10.38;;
71888;SDS011;59762;49.998;14.858;2022-08-19T11:16:44;11.35;;;10.23;;
71888;SDS011;59762;49.998;14.858;2022-08-19T11:19:11;13.27;;;10.45;;
71888;SDS011;59762;49.998;14.858;2022-08-19T11:21:39;14.32;;;10.82;;
71888;SDS011;59762;49.998;14.858;2022-08-19T11:24:08;11.48;;;10.27;;
71888;SDS011;59762;49.998;14.858;2022-08-19T11:26:36;13.20;;;10.20;;
71888;SDS011;59762;49.998;14.858;2022-08-19T11:29:03;11.07;;;9.90;;
71888;SDS011;59762;49.998;14.858;2022-08-19T11:31:32;11.95;;;10.68;;
71888;SDS011;59762;49.998;14.858;2022-08-19T11:34:00;11.52;;;10.20;;
71888;SDS011;59762;49.998;14.858;2022-08-19T11:36:29;13.18;;;10.70;;
71888;SDS011;59762;49.998;14.858;2022-08-19T11:38:56;12.82;;;10.18;;
71888;SDS011;59762;49.998;14.858;2022-08-19T11:41:22;13.32;;;10.20;;
71888;SDS011;59762;49.998;14.858;2022-08-19T11:43:50;13.40;;;10.27;;
71888;SDS011;59762;49.998;14.858;2022-08-19T11:46:18;16.95;;;11.18;;
71888;SDS011;59762;49.998;14.858;2022-08-19T11:48:43;11.20;;;10.00;;
71888;SDS011;59762;49.998;14.858;2022-08-19T11:51:13;13.75;;;11.32;;
71888;SDS011;59762;49.998;14.858;2022-08-19T11:53:45;11.30;;;10.10;;
71888;SDS011;59762;49.998;14.858;2022-08-19T11:56:11;11.32;;;9.80;;
71888;SDS011;59762;49.998;14.858;2022-08-19T11:58:37;12.85;;;10.45;;
71888;SDS011;59762;49.998;14.858;2022-08-19T12:01:11;12.95;;;10.70;;
71888;SDS011;59762;49.998;14.858;2022-08-19T12:03:39;12.05;;;10.65;;
71888;SDS011;59762;49.998;14.858;2022-08-19T12:06:08;12.80;;;10.60;;
71888;SDS011;59762;49.998;14.858;2022-08-19T12:08:37;12.20;;;10.43;;
71888;SDS011;59762;49.998;14.858;2022-08-19T12:11:03;17.92;;;10.90;;
71888;SDS011;59762;49.998;14.858;2022-08-19T12:13:30;13.32;;;10.30;;
71888;SDS011;59762;49.998;14.858;2022-08-19T12:15:55;11.98;;;10.73;;
71888;SDS011;59762;49.998;14.858;2022-08-19T12:18:22;14.10;;;11.98;;
71888;SDS011;59762;49.998;14.858;2022-08-19T12:20:49;12.77;;;10.52;;
71888;SDS011;59762;49.998;14.858;2022-08-19T12:23:16;12.18;;;9.75;;
71888;SDS011;59762;49.998;14.858;2022-08-19T12:25:43;12.43;;;10.15;;
71888;SDS011;59762;49.998;14.858;2022-08-19T12:28:20;13.25;;;10.50;;
71888;SDS011;59762;49.998;14.858;2022-08-19T12:30:48;11.75;;;10.18;;
71888;SDS011;59762;49.998;14.858;2022-08-19T12:33:16;13.25;;;10.80;;
71888;SDS011;59762;49.998;14.858;2022-08-19T12:35:43;13.93;;;10.55;;
71888;SDS011;59762;49.998;14.858;2022-08-19T12:38:10;11.15;;;9.95;;
71888;SDS011;59762;49.998;14.858;2022-08-19T12:40:36;11.80;;;10.20;;
71888;SDS011;59762;49.998;14.858;2022-08-19T12:43:01;10.43;;;8.98;;
71888;SDS011;59762;49.998;14.858;2022-08-19T12:45:27;13.88;;;10.18;;
71888;SDS011;59762;49.998;14.858;2022-08-19T12:47:53;10.75;;;9.65;;
71888;SDS011;59762;49.998;14.858;2022-08-19T12:50:19;16.45;;;9.93;;
71888;SDS011;59762;49.998;14.858;2022-08-19T12:52:46;14.05;;;10.63;;
71888;SDS011;59762;49.998;14.858;2022-08-19T12:55:13;12.20;;;10.60;;
71888;SDS011;59762;49.998;14.858;2022-08-19T12:57:38;13.27;;;10.15;;
71888;SDS011;59762;49.998;14.858;2022-08-19T13:02:35;11.80;;;9.65;;
71888;SDS011;59762;49.998;14.858;2022-08-19T13:05:02;11.82;;;10.55;;
71888;SDS011;59762;49.998;14.858;2022-08-19T13:07:28;12.27;;;10.40;;
71888;SDS011;59762;49.998;14.858;2022-08-19T13:09:55;13.48;;;10.77;;
71888;SDS011;59762;49.998;14.858;2022-08-19T13:12:21;11.98;;;10.63;;
71888;SDS011;59762;49.998;14.858;2022-08-19T13:14:49;13.48;;;11.32;;
71888;SDS011;59762;49.998;14.858;2022-08-19T13:17:16;13.55;;;10.35;;
71888;SDS011;59762;49.998;14.858;2022-08-19T13:19:41;12.77;;;10.60;;
71888;SDS011;59762;49.998;14.858;2022-08-19T13:22:07;13.98;;;10.73;;
71888;SDS011;59762;49.998;14.858;2022-08-19T13:24:32;14.55;;;10.27;;
71888;SDS011;59762;49.998;14.858;2022-08-19T13:26:59;13.32;;;10.95;;
71888;SDS011;59762;49.998;14.858;2022-08-19T13:29:25;12.30;;;10.93;;
71888;SDS011;59762;49.998;14.858;2022-08-19T13:32:09;15.57;;;10.43;;
71888;SDS011;59762;49.998;14.858;2022-08-19T13:34:53;12.80;;;10.68;;
71888;SDS011;59762;49.998;14.858;2022-08-19T13:37:18;13.45;;;10.23;;
71888;SDS011;59762;49.998;14.858;2022-08-19T13:40:04;13.43;;;10.80;;
71888;SDS011;59762;49.998;14.858;2022-08-19T13:42:30;13.48;;;10.85;;
71888;SDS011;59762;49.998;14.858;2022-08-19T13:44:57;15.70;;;10.73;;
71888;SDS011;59762;49.998;14.858;2022-08-19T13:47:23;14.07;;;11.23;;
71888;SDS011;59762;49.998;14.858;2022-08-19T13:49:49;13.02;;;11.07;;
71888;SDS011;59762;49.998;14.858;2022-08-19T13:52:15;16.08;;;11.30;;
71888;SDS011;59762;49.998;14.858;2022-08-19T13:54:40;16.70;;;11.57;;
71888;SDS011;59762;49.998;14.858;2022-08-19T13:57:06;13.30;;;11.90;;
71888;SDS011;59762;49.998;14.858;2022-08-19T13:59:32;13.48;;;11.60;;
71888;SDS011;59762;49.998;14.858;2022-08-19T14:01:59;12.70;;;10.82;;
71888;SDS011;59762;49.998;14.858;2022-08-19T14:04:25;11.88;;;10.55;;
71888;SDS011;59762;49.998;14.858;2022-08-19T14:06:51;13.85;;;10.57;;
71888;SDS011;59762;49.998;14.858;2022-08-19T14:09:16;11.63;;;10.10;;
71888;SDS011;59762;49.998;14.858;2022-08-19T14:11:42;13.02;;;10.48;;
71888;SDS011;59762;49.998;14.858;2022-08-19T14:14:07;12.98;;;9.65;;
71888;SDS011;59762;49.998;14.858;2022-08-19T14:16:33;14.45;;;11.05;;
71888;SDS011;59762;49.998;14.858;2022-08-19T14:18:58;15.50;;;10.73;;
71888;SDS011;59762;49.998;14.858;2022-08-19T14:21:24;14.10;;;10.95;;
71888;SDS011;59762;49.998;14.858;2022-08-19T14:23:50;11.85;;;10.50;;
71888;SDS011;59762;49.998;14.858;2022-08-19T14:26:17;13.85;;;11.55;;
71888;SDS011;59762;49.998;14.858;2022-08-19T14:28:45;13.70;;;11.18;;
71888;SDS011;59762;49.998;14.858;2022-08-19T14:31:11;14.80;;;11.55;;
71888;SDS011;59762;49.998;14.858;2022-08-19T14:33:38;16.60;;;11.75;;
71888;SDS011;59762;49.998;14.858;2022-08-19T14:36:04;14.68;;;12.32;;
71888;SDS011;59762;49.998;14.858;2022-08-19T14:38:30;15.30;;;12.65;;